Time;durP1;ratioP1;P1;durP2;ratioP2;P2;SDS_P1;SDS_P2;PMS_P1;PMS_P2;Temp;Humidity;BMP_temperature;BMP_pressure;BME280_temperature;BME280_humidity;BME280_pressure;Samples;Min_cycle;Max_cycle;Signal;HPM_P1;HPM_P2
2021/06/29 00:00:36;;;;;;;1999.90;999.90;;;22.70;99.90;;;;;;5034214;28;20165;-67
2021/06/29 00:03:07;;;;;;;1999.90;999.90;;;22.50;99.90;;;;;;5035519;28;20777;-67
2021/06/29 00:05:35;;;;;;;1999.90;999.90;;;22.30;99.90;;;;;;5035356;28;20201;-67
2021/06/29 00:08:06;;;;;;;1999.90;999.90;;;22.00;99.90;;;;;;5035392;28;20408;-67
2021/06/29 00:10:32;;;;;;;1999.90;999.90;;;21.90;99.90;;;;;;5035541;28;20415;-67
2021/06/29 00:12:58;;;;;;;1999.90;999.90;;;21.70;99.90;;;;;;5035652;28;20764;-67
2021/06/29 00:15:26;;;;;;;1999.90;999.90;;;21.60;99.90;;;;;;5034948;28;20215;-67
2021/06/29 00:17:51;;;;;;;1999.90;999.90;;;21.50;99.90;;;;;;5035311;28;20180;-67
2021/06/29 00:20:17;;;;;;;1999.90;999.90;;;21.50;99.90;;;;;;5035248;28;20397;-67
2021/06/29 00:22:44;;;;;;;1999.90;999.90;;;21.40;99.90;;;;;;5035443;28;20244;-67
2021/06/29 00:25:12;;;;;;;1999.90;999.90;;;21.50;99.90;;;;;;5034961;28;20244;-67
2021/06/29 00:27:40;;;;;;;1999.90;999.90;;;21.40;99.90;;;;;;5035466;28;20978;-67
2021/06/29 00:30:07;;;;;;;1999.90;999.90;;;21.40;99.90;;;;;;5035391;28;20490;-66
2021/06/29 00:32:32;;;;;;;1999.90;999.90;;;21.40;99.90;;;;;;5035248;28;20445;-66
2021/06/29 00:34:58;;;;;;;1999.90;999.90;;;21.30;99.90;;;;;;5034812;28;20457;-67
2021/06/29 00:37:24;;;;;;;1999.90;999.90;;;21.10;99.90;;;;;;5035135;28;20160;-66
2021/06/29 00:39:50;;;;;;;1999.90;999.90;;;21.10;99.90;;;;;;5035279;28;20246;-66
2021/06/29 00:42:15;;;;;;;1999.90;999.90;;;21.10;99.90;;;;;;5035260;28;20403;-67
2021/06/29 00:44:41;;;;;;;1999.90;999.90;;;21.00;99.90;;;;;;5034881;28;20184;-67
2021/06/29 00:47:10;;;;;;;1999.90;999.90;;;21.10;99.90;;;;;;5035074;28;20210;-67
2021/06/29 00:49:36;;;;;;;1999.90;999.90;;;21.00;99.90;;;;;;5034951;28;20183;-67
2021/06/29 00:52:03;;;;;;;1999.90;999.90;;;21.00;99.90;;;;;;5034940;28;20410;-67
2021/06/29 00:54:29;;;;;;;1999.90;999.90;;;21.00;99.90;;;;;;5034619;28;20530;-66
2021/06/29 00:56:55;;;;;;;1999.90;999.90;;;20.90;99.90;;;;;;5034929;28;20487;-67
2021/06/29 00:59:20;;;;;;;1999.90;999.90;;;20.90;99.90;;;;;;5034839;28;20165;-67
2021/06/29 01:01:46;;;;;;;1999.90;999.90;;;20.90;99.90;;;;;;5034948;28;20171;-67
2021/06/29 01:04:11;;;;;;;1999.90;999.90;;;20.70;99.90;;;;;;5034314;28;20207;-67
2021/06/29 01:06:40;;;;;;;1999.90;999.90;;;20.60;99.90;;;;;;5034509;28;20592;-67
2021/06/29 01:09:06;;;;;;;1999.90;999.90;;;20.50;99.90;;;;;;5034603;28;20207;-67
2021/06/29 01:11:32;;;;;;;1999.90;999.90;;;20.40;99.90;;;;;;5033482;28;20408;-66
2021/06/29 01:14:10;;;;;;;1999.90;999.90;;;20.30;99.90;;;;;;5034005;28;20506;-67
2021/06/29 01:16:35;;;;;;;1999.90;999.90;;;20.20;99.90;;;;;;5034229;28;20291;-67
2021/06/29 01:19:01;;;;;;;1999.90;999.90;;;20.00;99.90;;;;;;5034216;28;20498;-67
2021/06/29 01:21:38;;;;;;;1999.90;999.90;;;20.00;99.90;;;;;;5034383;28;20565;-67
2021/06/29 01:24:07;;;;;;;1999.90;999.90;;;19.90;99.90;;;;;;5034040;28;20183;-67
2021/06/29 01:26:37;;;;;;;1999.90;999.90;;;19.70;99.90;;;;;;5034171;28;20413;-67
2021/06/29 01:29:06;;;;;;;1999.90;999.90;;;19.60;99.90;;;;;;5034338;28;20496;-67
2021/06/29 01:31:33;;;;;;;1999.90;999.90;;;19.50;99.90;;;;;;5034357;28;20414;-67
2021/06/29 01:34:00;;;;;;;1999.90;999.90;;;19.30;99.90;;;;;;5033912;28;20472;-66
2021/06/29 01:36:32;;;;;;;1999.90;999.90;;;19.20;99.90;;;;;;5034048;28;20468;-66
2021/06/29 01:38:57;;;;;;;1999.90;999.90;;;19.20;99.90;;;;;;5034022;28;20407;-67
2021/06/29 01:41:24;;;;;;;1999.90;999.90;;;19.00;99.90;;;;;;5034085;28;20405;-66
2021/06/29 01:46:17;;;;;;;1999.90;999.90;;;18.90;99.90;;;;;;5034186;28;20504;-66
2021/06/29 01:48:47;;;;;;;1999.90;999.90;;;18.90;99.90;;;;;;5034184;28;20186;-67
2021/06/29 01:51:13;;;;;;;1999.90;999.90;;;18.80;99.90;;;;;;5033814;28;20502;-67
2021/06/29 01:53:39;;;;;;;1999.90;999.90;;;18.90;99.90;;;;;;5033795;28;20460;-67
2021/06/29 01:56:06;;;;;;;1999.90;999.90;;;18.90;99.90;;;;;;5033515;28;20495;-67
2021/06/29 01:58:33;;;;;;;1999.90;999.90;;;18.80;99.90;;;;;;5033968;28;20594;-66
2021/06/29 02:00:59;;;;;;;1999.90;999.90;;;18.90;99.90;;;;;;5034177;28;20408;-66
2021/06/29 02:03:26;;;;;;;1999.90;999.90;;;18.90;99.90;;;;;;5033621;28;20407;-66
2021/06/29 02:05:52;;;;;;;1999.90;999.90;;;18.90;99.90;;;;;;5033387;28;20174;-67
2021/06/29 02:08:18;;;;;;;1999.90;999.90;;;18.80;99.90;;;;;;5033743;28;20436;-67
2021/06/29 02:10:44;;;;;;;1999.90;999.90;;;18.80;99.90;;;;;;5033584;28;20411;-67
2021/06/29 02:13:10;;;;;;;1999.90;999.90;;;18.80;99.90;;;;;;5033545;28;20412;-67
2021/06/29 02:15:36;;;;;;;1999.90;999.90;;;18.80;99.90;;;;;;5033012;28;20686;-66
2021/06/29 02:18:03;;;;;;;1999.90;999.90;;;18.80;99.90;;;;;;5033233;28;20496;-67
2021/06/29 02:20:28;;;;;;;1999.90;999.90;;;18.70;99.90;;;;;;5033296;28;20410;-66
2021/06/29 02:22:54;;;;;;;1999.90;999.90;;;18.70;99.90;;;;;;5033067;28;20403;-66
2021/06/29 02:25:20;;;;;;;1999.90;999.90;;;18.70;99.90;;;;;;5033025;28;20198;-67
2021/06/29 02:27:46;;;;;;;1999.90;999.90;;;18.70;99.90;;;;;;5033187;28;20165;-66
2021/06/29 02:30:13;;;;;;;1999.90;999.90;;;18.70;99.90;;;;;;5033512;28;20409;-66
2021/06/29 02:32:38;;;;;;;1999.90;999.90;;;18.80;99.90;;;;;;5033278;28;20637;-66
2021/06/29 02:35:05;;;;;;;1999.90;999.90;;;18.70;99.90;;;;;;5032826;28;20454;-66
2021/06/29 02:37:31;;;;;;;1999.90;999.90;;;18.80;99.90;;;;;;5033260;28;20246;-67
2021/06/29 02:39:57;;;;;;;1999.90;999.90;;;18.90;99.90;;;;;;5033140;28;20419;-67
2021/06/29 02:42:22;;;;;;;1999.90;999.90;;;18.90;99.90;;;;;;5033103;28;20404;-67
2021/06/29 02:44:48;;;;;;;1999.90;999.90;;;18.90;99.90;;;;;;5032821;28;20219;-66
2021/06/29 02:47:15;;;;;;;1999.90;999.90;;;19.10;99.90;;;;;;5033153;28;20203;-67
2021/06/29 02:49:41;;;;;;;1999.90;999.90;;;19.10;99.90;;;;;;5032994;28;20162;-67
2021/06/29 02:52:07;;;;;;;1999.90;999.90;;;19.20;99.90;;;;;;5033005;28;20421;-67
2021/06/29 02:54:33;;;;;;;1999.90;999.90;;;19.20;99.90;;;;;;5032420;28;21156;-67
2021/06/29 02:56:59;;;;;;;1999.90;999.90;;;19.10;99.90;;;;;;5032906;28;20168;-66
2021/06/29 02:59:25;;;;;;;1999.90;999.90;;;19.00;99.90;;;;;;5033203;28;20487;-67
2021/06/29 03:01:50;;;;;;;1999.90;999.90;;;18.90;99.90;;;;;;5032936;28;20227;-66
2021/06/29 03:04:16;;;;;;;1999.90;999.90;;;18.80;99.90;;;;;;5032552;28;20477;-66
2021/06/29 03:06:42;;;;;;;1999.90;999.90;;;18.80;99.90;;;;;;5033149;28;20261;-66
2021/06/29 03:09:09;;;;;;;1999.90;999.90;;;18.80;99.90;;;;;;5032950;28;20256;-66
2021/06/29 03:11:36;;;;;;;1999.90;999.90;;;18.80;99.90;;;;;;5032785;28;20196;-66
2021/06/29 03:14:02;;;;;;;1999.90;999.90;;;18.70;99.90;;;;;;5032407;28;20455;-66
2021/06/29 03:16:28;;;;;;;1999.90;999.90;;;18.70;99.90;;;;;;5032629;28;20497;-66
2021/06/29 03:18:54;;;;;;;1999.90;999.90;;;18.60;99.90;;;;;;5032563;28;20433;-67
2021/06/29 03:21:19;;;;;;;1999.90;999.90;;;18.60;99.90;;;;;;5032966;28;20183;-67
2021/06/29 03:23:45;;;;;;;1999.90;999.90;;;18.60;99.90;;;;;;5032386;28;20238;-66
2021/06/29 03:26:11;;;;;;;1999.90;999.90;;;18.60;99.90;;;;;;5032748;28;20246;-66
2021/06/29 03:28:37;;;;;;;1999.90;999.90;;;18.60;99.90;;;;;;5032814;28;20170;-66
2021/06/29 03:31:02;;;;;;;1999.90;999.90;;;18.50;99.90;;;;;;5032640;28;20408;-66
2021/06/29 03:33:28;;;;;;;1999.90;999.90;;;18.60;99.90;;;;;;5032923;28;20175;-66
2021/06/29 03:35:54;;;;;;;1999.90;999.90;;;18.60;99.90;;;;;;5036304;28;20284;-66
2021/06/29 03:38:19;;;;;;;1999.90;999.90;;;18.70;99.90;;;;;;5036432;28;20176;-66
2021/06/29 03:40:45;;;;;;;1999.90;999.90;;;18.60;99.90;;;;;;5036530;28;20175;-66
2021/06/29 03:43:10;;;;;;;1999.90;999.90;;;18.40;99.90;;;;;;5036108;28;20197;-66
2021/06/29 03:45:36;;;;;;;1999.90;999.90;;;18.50;99.90;;;;;;5035634;28;20664;-66
2021/06/29 03:48:02;;;;;;;1999.90;999.90;;;18.60;99.90;;;;;;5035757;28;20194;-66
2021/06/29 03:50:28;;;;;;;1999.90;999.90;;;18.60;99.90;;;;;;5035818;28;20214;-66
2021/06/29 03:52:54;;;;;;;1999.90;999.90;;;18.60;99.90;;;;;;5035847;28;20401;-66
2021/06/29 03:55:20;;;;;;;1999.90;999.90;;;18.60;99.90;;;;;;5035437;28;20221;-66
2021/06/29 03:57:45;;;;;;;1999.90;999.90;;;18.70;99.90;;;;;;5035930;28;20418;-66
2021/06/29 04:00:12;;;;;;;1999.90;999.90;;;18.60;99.90;;;;;;5036024;28;20551;-66
2021/06/29 04:02:38;;;;;;;1999.90;999.90;;;18.70;99.90;;;;;;5036628;28;20223;-66
2021/06/29 04:05:07;;;;;;;1999.90;999.90;;;18.60;99.90;;;;;;5036432;28;20428;-66
2021/06/29 04:07:34;;;;;;;1999.90;999.90;;;18.60;99.90;;;;;;5036301;28;20176;-66
2021/06/29 04:10:00;;;;;;;1999.90;999.90;;;18.50;99.90;;;;;;5036408;28;20392;-66
2021/06/29 04:12:29;;;;;;;1999.90;999.90;;;18.50;99.90;;;;;;5036365;28;20434;-66
2021/06/29 04:14:55;;;;;;;1999.90;999.90;;;18.50;99.90;;;;;;5035644;28;20532;-67
2021/06/29 04:17:20;;;;;;;1999.90;999.90;;;18.40;99.90;;;;;;5036055;28;20407;-66
2021/06/29 04:19:46;;;;;;;1999.90;999.90;;;18.40;99.90;;;;;;5036079;28;20168;-66
2021/06/29 04:22:11;;;;;;;1999.90;999.90;;;18.40;99.90;;;;;;5035637;28;20640;-66
2021/06/29 04:24:37;;;;;;;1999.90;999.90;;;18.50;99.90;;;;;;5035033;28;20190;-66
2021/06/29 04:27:04;;;;;;;1999.90;999.90;;;18.40;99.90;;;;;;5035477;28;20651;-66
2021/06/29 04:29:30;;;;;;;1999.90;999.90;;;18.50;99.90;;;;;;5035182;28;20410;-66
2021/06/29 04:31:56;;;;;;;1999.90;999.90;;;18.50;99.90;;;;;;5035651;28;20395;-66
2021/06/29 04:34:21;;;;;;;1999.90;999.90;;;18.60;99.90;;;;;;5035172;28;20216;-66
2021/06/29 04:36:47;;;;;;;1999.90;999.90;;;18.60;99.90;;;;;;5035160;28;20203;-66
2021/06/29 04:39:13;;;;;;;1999.90;999.90;;;18.60;99.90;;;;;;5035122;28;20170;-66
2021/06/29 04:41:38;;;;;;;1999.90;999.90;;;18.60;99.90;;;;;;5034960;28;20604;-66
2021/06/29 04:44:05;;;;;;;1999.90;999.90;;;18.70;99.90;;;;;;5034619;28;20276;-66
2021/06/29 04:46:31;;;;;;;1999.90;999.90;;;18.70;99.90;;;;;;5034828;28;20170;-66
2021/06/29 04:48:57;;;;;;;1999.90;999.90;;;18.70;99.90;;;;;;5034884;28;20875;-66
2021/06/29 04:51:23;;;;;;;1999.90;999.90;;;18.80;99.90;;;;;;5035009;28;20897;-66
2021/06/29 04:53:49;;;;;;;1999.90;999.90;;;18.90;99.90;;;;;;5034726;28;20441;-66
2021/06/29 04:56:17;;;;;;;1999.90;999.90;;;18.90;99.90;;;;;;5034573;28;20208;-66
2021/06/29 04:58:48;;;;;;;1999.90;999.90;;;19.00;99.90;;;;;;5034643;28;20191;-66
2021/06/29 05:01:14;;;;;;;1999.90;999.90;;;18.90;99.90;;;;;;5034829;28;20417;-66
2021/06/29 05:03:39;;;;;;;1999.90;999.90;;;19.00;99.90;;;;;;5034354;28;20399;-66
2021/06/29 05:06:05;;;;;;;1999.90;999.90;;;19.00;99.90;;;;;;5034266;28;20593;-66
2021/06/29 05:08:31;;;;;;;1999.90;999.90;;;19.10;99.90;;;;;;5034464;28;20173;-66
2021/06/29 05:10:57;;;;;;;1999.90;999.90;;;19.10;99.90;;;;;;5034471;28;20237;-66
2021/06/29 05:13:23;;;;;;;1999.90;999.90;;;19.10;99.90;;;;;;5034558;28;20400;-66
2021/06/29 05:15:48;;;;;;;1999.90;999.90;;;19.10;99.90;;;;;;5033739;28;20259;-66
2021/06/29 05:18:16;;;;;;;1999.90;999.90;;;19.10;99.90;;;;;;5034599;28;20704;-66
2021/06/29 05:20:42;;;;;;;1999.90;999.90;;;19.00;99.90;;;;;;5034238;28;20218;-66
2021/06/29 05:23:07;;;;;;;1999.90;999.90;;;19.10;99.90;;;;;;5034521;28;20404;-66
2021/06/29 05:25:33;;;;;;;1999.90;999.90;;;19.00;99.90;;;;;;5034115;28;20190;-66
2021/06/29 05:27:58;;;;;;;1999.90;999.90;;;19.10;99.90;;;;;;5034408;28;20165;-66
2021/06/29 05:30:24;;;;;;;1999.90;999.90;;;19.20;99.90;;;;;;5034427;28;20171;-66
2021/06/29 05:32:50;;;;;;;1999.90;999.90;;;19.30;99.90;;;;;;5035473;28;20176;-66
2021/06/29 05:35:15;;;;;;;1999.90;999.90;;;19.40;99.90;;;;;;5033657;28;20197;-66
2021/06/29 05:37:41;;;;;;;1999.90;999.90;;;19.40;99.90;;;;;;5034810;28;20704;-66
2021/06/29 05:40:07;;;;;;;1999.90;999.90;;;19.40;99.90;;;;;;5034490;28;20166;-66
2021/06/29 05:42:33;;;;;;;1999.90;999.90;;;19.40;99.90;;;;;;5035534;28;20172;-66
2021/06/29 05:44:59;;;;;;;1999.90;999.90;;;19.40;99.90;;;;;;5035550;28;20510;-66
2021/06/29 05:47:25;;;;;;;1999.90;999.90;;;19.40;99.90;;;;;;5035679;28;20937;-66
2021/06/29 05:49:50;;;;;;;1999.90;999.90;;;19.50;99.90;;;;;;5034350;28;20685;-66
2021/06/29 05:52:16;;;;;;;1999.90;999.90;;;19.50;99.90;;;;;;5034203;28;20249;-67
2021/06/29 05:54:44;;;;;;;1999.90;999.90;;;19.60;99.90;;;;;;5033375;28;20195;-66
2021/06/29 05:57:12;;;;;;;1999.90;999.90;;;19.60;99.90;;;;;;5034810;28;20426;-67
2021/06/29 05:59:37;;;;;;;1999.90;999.90;;;19.60;99.90;;;;;;5035346;28;20411;-66
2021/06/29 06:02:03;;;;;;;1999.90;999.90;;;19.70;99.90;;;;;;5035161;28;20784;-67
2021/06/29 06:04:29;;;;;;;1999.90;999.90;;;19.70;99.90;;;;;;5035746;28;20553;-67
2021/06/29 06:06:54;;;;;;;1999.90;999.90;;;19.80;99.90;;;;;;5035463;28;20180;-67
2021/06/29 06:09:20;;;;;;;1999.90;999.90;;;19.80;99.90;;;;;;5035013;28;20162;-66
2021/06/29 06:11:45;;;;;;;1999.90;999.90;;;19.80;99.90;;;;;;5035166;28;20201;-67
2021/06/29 06:14:11;;;;;;;1999.90;999.90;;;19.80;99.90;;;;;;5035087;28;20203;-67
2021/06/29 06:16:37;;;;;;;1999.90;999.90;;;19.80;99.90;;;;;;5035094;28;20519;-67
2021/06/29 06:19:04;;;;;;;1999.90;999.90;;;19.90;99.90;;;;;;5035612;28;20196;-66
2021/06/29 06:21:30;;;;;;;1999.90;999.90;;;20.00;99.90;;;;;;5035352;28;20169;-67
2021/06/29 06:23:55;;;;;;;1999.90;999.90;;;20.00;99.90;;;;;;5034874;28;20420;-67
2021/06/29 06:26:21;;;;;;;1999.90;999.90;;;20.00;99.90;;;;;;5034949;28;20203;-66
2021/06/29 06:28:46;;;;;;;1999.90;999.90;;;20.10;99.90;;;;;;5035170;28;20170;-66
2021/06/29 06:31:12;;;;;;;1999.90;999.90;;;20.10;99.90;;;;;;5035187;28;20180;-67
2021/06/29 06:33:38;;;;;;;1999.90;999.90;;;20.10;99.90;;;;;;5034814;28;20177;-66
2021/06/29 06:36:04;;;;;;;1999.90;999.90;;;20.10;99.90;;;;;;5034069;28;20196;-67
2021/06/29 06:38:29;;;;;;;1999.90;999.90;;;20.20;99.90;;;;;;5034542;28;20631;-66
2021/06/29 06:40:56;;;;;;;1999.90;999.90;;;20.40;99.90;;;;;;5035138;28;20480;-67
2021/06/29 06:43:22;;;;;;;1999.90;999.90;;;20.50;99.90;;;;;;5035097;28;20217;-67
2021/06/29 06:45:47;;;;;;;1999.90;999.90;;;20.60;99.90;;;;;;5034223;28;20464;-67
2021/06/29 06:48:13;;;;;;;1999.90;999.90;;;20.60;99.90;;;;;;5035373;28;20214;-66
2021/06/29 06:50:39;;;;;;;1999.90;999.90;;;20.40;99.90;;;;;;5034640;28;20224;-67
2021/06/29 06:53:04;;;;;;;1999.90;999.90;;;20.30;99.90;;;;;;5034136;28;20716;-66
2021/06/29 06:55:30;;;;;;;1999.90;999.90;;;20.10;99.90;;;;;;5034077;28;20212;-67
2021/06/29 06:57:57;;;;;;;1999.90;999.90;;;20.00;99.90;;;;;;5034831;28;20249;-67
2021/06/29 07:00:24;;;;;;;1999.90;999.90;;;20.00;99.90;;;;;;5034898;28;20178;-67
2021/06/29 07:02:51;;;;;;;1999.90;999.90;;;20.20;99.90;;;;;;5035029;28;20463;-67
2021/06/29 07:05:17;;;;;;;1999.90;999.90;;;20.10;99.90;;;;;;5037557;28;20466;-67
2021/06/29 07:07:43;;;;;;;1999.90;999.90;;;20.20;99.90;;;;;;5034500;28;20407;-66
2021/06/29 07:10:09;;;;;;;1999.90;999.90;;;20.20;99.90;;;;;;5034303;28;20488;-67
2021/06/29 07:12:35;;;;;;;1999.90;999.90;;;20.20;99.90;;;;;;5035643;28;20429;-67
2021/06/29 07:15:02;;;;;;;1999.90;999.90;;;20.30;99.90;;;;;;5033618;28;20527;-67
2021/06/29 07:17:27;;;;;;;1999.90;999.90;;;20.10;99.90;;;;;;5034234;28;20434;-67
2021/06/29 07:19:53;;;;;;;1999.90;999.90;;;20.10;99.90;;;;;;5033209;28;20439;-67
2021/06/29 07:22:19;;;;;;;1999.90;999.90;;;20.00;99.90;;;;;;5032107;28;20598;-67
2021/06/29 07:24:44;;;;;;;1999.90;999.90;;;20.00;99.90;;;;;;5031588;28;20545;-67
2021/06/29 07:27:10;;;;;;;1999.90;999.90;;;20.00;99.90;;;;;;5031970;28;20221;-67
2021/06/29 07:29:36;;;;;;;1999.90;999.90;;;20.10;99.90;;;;;;5031907;28;20171;-67
2021/06/29 07:32:03;;;;;;;1999.90;999.90;;;19.90;99.90;;;;;;5032149;28;20183;-67
2021/06/29 07:34:29;;;;;;;1999.90;999.90;;;20.00;99.90;;;;;;5031566;28;20784;-67
2021/06/29 07:36:55;;;;;;;1999.90;999.90;;;20.10;99.90;;;;;;5031768;28;20458;-67
2021/06/29 07:39:21;;;;;;;1999.90;999.90;;;20.10;99.90;;;;;;5031827;28;20181;-67
2021/06/29 07:41:47;;;;;;;1999.90;999.90;;;20.30;99.90;;;;;;5031785;28;20406;-67
2021/06/29 07:44:13;;;;;;;1999.90;999.90;;;20.50;99.90;;;;;;5031602;28;20434;-67
2021/06/29 07:46:39;;;;;;;1999.90;999.90;;;20.60;99.90;;;;;;5031973;28;20415;-67
2021/06/29 07:49:05;;;;;;;1999.90;999.90;;;20.90;99.90;;;;;;5031728;28;20175;-67
2021/06/29 07:51:31;;;;;;;1999.90;999.90;;;21.10;99.90;;;;;;5031742;28;20232;-67
2021/06/29 07:53:56;;;;;;;1999.90;999.90;;;21.20;99.90;;;;;;5031300;28;20428;-67
2021/06/29 07:56:22;;;;;;;1999.90;999.90;;;21.30;99.90;;;;;;5031586;28;20464;-67
2021/06/29 07:58:48;;;;;;;1999.90;999.90;;;21.40;99.90;;;;;;5031664;28;20176;-67
2021/06/29 08:01:16;;;;;;;1999.90;999.90;;;21.50;99.90;;;;;;5031715;28;20188;-67
2021/06/29 08:03:42;;;;;;;1999.90;999.90;;;21.50;99.90;;;;;;5031384;28;20171;-67
2021/06/29 08:06:08;;;;;;;1999.90;999.90;;;21.50;99.90;;;;;;5031582;28;20401;-67
2021/06/29 08:08:34;;;;;;;1999.90;999.90;;;21.60;99.90;;;;;;5031488;28;20176;-67
2021/06/29 08:11:01;;;;;;;1999.90;999.90;;;21.70;99.90;;;;;;5031525;28;20175;-67
2021/06/29 08:13:27;;;;;;;1999.90;999.90;;;21.70;99.90;;;;;;5031424;28;20404;-67
2021/06/29 08:15:53;;;;;;;1999.90;999.90;;;21.90;99.90;;;;;;5031506;28;20465;-67
2021/06/29 08:18:19;;;;;;;1999.90;999.90;;;22.10;99.90;;;;;;5031641;28;20645;-67
2021/06/29 08:20:45;;;;;;;1999.90;999.90;;;22.30;99.90;;;;;;5032930;28;20415;-67
2021/06/29 08:23:11;;;;;;;1999.90;999.90;;;22.50;99.90;;;;;;5035437;28;20161;-67
2021/06/29 08:25:38;;;;;;;1999.90;999.90;;;22.70;99.90;;;;;;5035141;28;20428;-67
2021/06/29 08:28:04;;;;;;;1999.90;999.90;;;22.90;99.90;;;;;;5035172;28;20182;-67
2021/06/29 08:30:29;;;;;;;1999.90;999.90;;;22.90;99.90;;;;;;5035423;28;20468;-67
2021/06/29 08:32:55;;;;;;;1999.90;999.90;;;23.10;99.90;;;;;;5035283;28;20182;-67
2021/06/29 08:35:21;;;;;;;1999.90;999.90;;;23.20;99.90;;;;;;5034987;28;20283;-67
2021/06/29 08:37:47;;;;;;;1999.90;999.90;;;23.00;99.90;;;;;;5035092;28;20166;-67
2021/06/29 08:40:13;;;;;;;1999.90;999.90;;;23.10;99.90;;;;;;5035335;28;20174;-67
2021/06/29 08:42:40;;;;;;;1999.90;999.90;;;23.10;99.90;;;;;;5035113;28;20398;-67
2021/06/29 08:45:08;;;;;;;1999.90;999.90;;;23.20;99.90;;;;;;5034722;28;20417;-67
2021/06/29 08:47:35;;;;;;;1999.90;999.90;;;23.30;99.90;;;;;;5035602;28;20437;-67
2021/06/29 08:50:02;;;;;;;1999.90;999.90;;;23.30;99.90;;;;;;5034749;28;20423;-67
2021/06/29 08:52:29;;;;;;;1999.90;999.90;;;23.30;99.90;;;;;;5035301;28;20995;-67
2021/06/29 08:54:55;;;;;;;1999.90;999.90;;;23.20;99.90;;;;;;5034674;28;20523;-67
2021/06/29 08:57:21;;;;;;;1999.90;999.90;;;23.40;99.90;;;;;;5040297;28;20431;-68
2021/06/29 08:59:46;;;;;;;1999.90;999.90;;;23.50;99.90;;;;;;5041061;28;20166;-68
2021/06/29 09:02:12;;;;;;;1999.90;999.90;;;23.40;99.90;;;;;;5040424;28;20666;-67
2021/06/29 09:04:44;;;;;;;1999.90;999.90;;;23.40;99.90;;;;;;5039288;28;20217;-66
2021/06/29 09:07:30;;;;;;;1999.90;999.90;;;23.40;99.90;;;;;;5040803;28;20163;-67
2021/06/29 09:09:58;;;;;;;1999.90;999.90;;;23.50;99.90;;;;;;5038830;28;20452;-66
2021/06/29 09:12:48;;;;;;;1999.90;999.90;;;23.40;99.90;;;;;;5040379;28;20493;-68
2021/06/29 09:15:43;;;;;;;1999.90;999.90;;;23.40;99.90;;;;;;5033702;28;20474;-68
2021/06/29 09:18:14;;;;;;;1999.90;999.90;;;23.20;99.90;;;;;;5039677;28;20422;-67
2021/06/29 09:20:41;;;;;;;1999.90;999.90;;;23.00;99.90;;;;;;5039921;28;20523;-67
2021/06/29 09:23:10;;;;;;;1999.90;999.90;;;23.10;99.90;;;;;;5039297;28;20410;-68
2021/06/29 09:25:36;;;;;;;1999.90;999.90;;;23.20;99.90;;;;;;5040285;28;20426;-68
2021/06/29 09:28:02;;;;;;;1999.90;999.90;;;23.30;99.90;;;;;;5040604;28;20445;-67
2021/06/29 09:30:36;;;;;;;1999.90;999.90;;;23.40;99.90;;;;;;5039851;28;20301;-67
2021/06/29 09:33:07;;;;;;;1999.90;999.90;;;23.40;99.90;;;;;;5040685;28;20411;-68
2021/06/29 09:35:33;;;;;;;1999.90;999.90;;;23.50;99.90;;;;;;5077178;23;20468;-70
2021/06/29 09:38:00;;;;;;;1999.90;999.90;;;23.60;99.90;;;;;;5033748;28;20412;-70
2021/06/29 09:40:28;;;;;;;1999.90;999.90;;;23.70;99.90;;;;;;5033757;28;20460;-70
2021/06/29 09:43:07;;;;;;;1999.90;999.90;;;23.80;99.90;;;;;;5033863;28;20451;-69
2021/06/29 09:45:41;;;;;;;1999.90;999.90;;;23.90;99.90;;;;;;5033391;28;20952;-70
2021/06/29 09:48:10;;;;;;;1999.90;999.90;;;23.90;99.90;;;;;;5033618;28;20425;-70
2021/06/29 09:50:41;;;;;;;1999.90;999.90;;;23.90;99.90;;;;;;5033546;28;20959;-70
2021/06/29 09:53:17;;;;;;;1999.90;999.90;;;24.00;99.90;;;;;;5033737;28;20794;-70
2021/06/29 09:55:46;;;;;;;1999.90;999.90;;;24.00;99.90;;;;;;5033171;28;20493;-70
2021/06/29 09:58:14;;;;;;;1999.90;999.90;;;24.10;99.90;;;;;;5033472;28;20871;-70
2021/06/29 10:00:41;;;;;;;1999.90;999.90;;;24.30;99.90;;;;;;5033453;28;20846;-70
2021/06/29 10:03:19;;;;;;;1999.90;999.90;;;24.40;99.90;;;;;;5033255;28;20444;-69
2021/06/29 10:05:44;;;;;;;1999.90;999.90;;;24.50;99.90;;;;;;5033156;28;20400;-70
2021/06/29 10:08:10;;;;;;;1999.90;999.90;;;24.40;99.90;;;;;;5033209;28;20469;-70
2021/06/29 10:10:36;;;;;;;1999.90;999.90;;;24.40;99.90;;;;;;5033230;28;20673;-70
2021/06/29 10:13:15;;;;;;;1999.90;999.90;;;24.40;99.90;;;;;;5033167;28;20168;-70
2021/06/29 10:15:41;;;;;;;1999.90;999.90;;;24.50;99.90;;;;;;5032584;28;20749;-70
2021/06/29 10:18:09;;;;;;;1999.90;999.90;;;24.60;99.90;;;;;;5033013;28;20377;-70
2021/06/29 10:20:56;;;;;;;1999.90;999.90;;;24.70;99.90;;;;;;5033187;28;20717;-70
2021/06/29 10:23:22;;;;;;;1999.90;999.90;;;24.90;99.90;;;;;;5033288;28;20489;-70
2021/06/29 10:25:49;;;;;;;1999.90;999.90;;;25.00;99.90;;;;;;5032531;28;20829;-70
2021/06/29 10:28:15;;;;;;;1999.90;999.90;;;25.00;99.90;;;;;;5032824;28;20399;-70
2021/06/29 10:30:41;;;;;;;1999.90;999.90;;;24.90;99.90;;;;;;5033010;28;20443;-70
2021/06/29 10:33:12;;;;;;;1999.90;999.90;;;24.90;99.90;;;;;;5032766;28;20408;-70
2021/06/29 10:35:38;;;;;;;1999.90;999.90;;;25.20;99.90;;;;;;5032310;28;20463;-69
2021/06/29 10:38:04;;;;;;;1999.90;999.90;;;25.20;99.90;;;;;;5032679;28;20716;-69
2021/06/29 10:40:31;;;;;;;1999.90;999.90;;;25.50;99.90;;;;;;5032553;28;20408;-70
2021/06/29 10:42:59;;;;;;;1999.90;999.90;;;25.60;99.90;;;;;;5032492;28;20895;-70
2021/06/29 10:45:33;;;;;;;1999.90;999.90;;;25.60;99.90;;;;;;5032379;28;20434;-70
2021/06/29 10:48:20;;;;;;;1999.90;999.90;;;25.60;99.90;;;;;;5032593;28;20422;-69
2021/06/29 10:50:47;;;;;;;1999.90;999.90;;;25.40;99.90;;;;;;5032525;28;20904;-70
2021/06/29 10:53:31;;;;;;;1999.90;999.90;;;25.00;99.90;;;;;;5032297;28;20390;-70
2021/06/29 10:55:57;;;;;;;1999.90;999.90;;;24.90;99.90;;;;;;5031963;28;20861;-70
2021/06/29 10:58:36;;;;;;;1999.90;999.90;;;25.00;99.90;;;;;;5032617;28;20495;-70
2021/06/29 11:01:23;;;;;;;1999.90;999.90;;;25.10;99.90;;;;;;5032347;28;20460;-70
2021/06/29 11:03:50;;;;;;;1999.90;999.90;;;25.10;99.90;;;;;;5032068;28;20402;-70
2021/06/29 11:06:32;;;;;;;1999.90;999.90;;;25.00;99.90;;;;;;5032251;28;20902;-70
2021/06/29 11:08:59;;;;;;;1999.90;999.90;;;25.10;99.90;;;;;;5032223;28;20373;-70
2021/06/29 11:11:29;;;;;;;1999.90;999.90;;;25.20;99.90;;;;;;5032260;28;20418;-70
2021/06/29 11:13:55;;;;;;;1999.90;999.90;;;25.30;99.90;;;;;;5031845;28;20406;-70
2021/06/29 11:16:58;;;;;;;1999.90;999.90;;;25.40;99.90;;;;;;5031894;28;20968;-70
2021/06/29 11:20:06;;;;;;;1999.90;999.90;;;25.40;99.90;;;;;;5010008;28;20173;-70
2021/06/29 11:22:47;;;;;;;1999.90;999.90;;;25.30;99.90;;;;;;5032234;28;20788;-70
2021/06/29 11:25:29;;;;;;;1999.90;999.90;;;25.40;99.90;;;;;;5031567;28;20959;-71
2021/06/29 11:28:11;;;;;;;1999.90;999.90;;;25.50;99.90;;;;;;5032034;28;20872;-70
2021/06/29 11:30:55;;;;;;;1999.90;999.90;;;25.50;99.90;;;;;;5031983;28;20609;-70
2021/06/29 11:33:49;;;;;;;1999.90;999.90;;;25.40;99.90;;;;;;5032064;28;20890;-70
2021/06/29 11:36:23;;;;;;;1999.90;999.90;;;25.60;99.90;;;;;;5031305;28;20459;-70
2021/06/29 11:38:54;;;;;;;1999.90;999.90;;;26.10;99.90;;;;;;5031813;28;20461;-70
2021/06/29 11:41:28;;;;;;;1999.90;999.90;;;26.30;99.90;;;;;;5031908;28;20372;-70
2021/06/29 11:44:06;;;;;;;1999.90;999.90;;;26.10;99.90;;;;;;5031574;28;20907;-70
2021/06/29 11:46:58;;;;;;;1999.90;999.90;;;26.10;99.90;;;;;;5031723;28;20428;-70
2021/06/29 11:49:37;;;;;;;1999.90;999.90;;;26.30;99.90;;;;;;5031709;28;20385;-70
2021/06/29 11:52:14;;;;;;;1999.90;999.90;;;26.10;99.90;;;;;;5030511;28;20431;-73
2021/06/29 11:54:48;;;;;;;1999.90;999.90;;;25.90;99.90;;;;;;5030833;28;20418;-72
2021/06/29 11:57:28;;;;;;;1999.90;999.90;;;26.10;99.90;;;;;;5034496;28;20830;-73
2021/06/29 12:00:03;;;;;;;1999.90;999.90;;;26.50;99.90;;;;;;5030468;28;20422;-71
2021/06/29 12:02:30;;;;;;;1999.90;999.90;;;26.60;99.90;;;;;;5032677;28;20502;-71
2021/06/29 12:04:57;;;;;;;1999.90;999.90;;;26.70;99.90;;;;;;5032768;28;20404;-71